Time;durP1;ratioP1;P1;durP2;ratioP2;P2;SDS_P1;SDS_P2;PMS_P1;PMS_P2;Temp;Humidity;BMP_temperature;BMP_pressure;BME280_temperature;BME280_humidity;BME280_pressure;Samples;Min_cycle;Max_cycle;Signal;HPM_P1;HPM_P2
2023/04/29 00:01:57;;;;;;;8.43;5.85;;;;;;;;;;4916012;29;20617;-65
2023/04/29 00:04:26;;;;;;;5.65;5.03;;;;;;;;;;4915370;29;20190;-64
2023/04/29 00:06:54;;;;;;;7.43;5.32;;;;;;;;;;4921392;29;20208;-65
2023/04/29 00:09:23;;;;;;;5.30;4.90;;;;;;;;;;4935181;29;20593;-65
2023/04/29 00:11:52;;;;;;;10.43;5.27;;;;;;;;;;4918145;29;20672;-64
2023/04/29 00:14:20;;;;;;;5.37;4.97;;;;;;;;;;4934907;29;20798;-65
2023/04/29 00:16:48;;;;;;;4.68;4.18;;;;;;;;;;4934795;29;20603;-64
2023/04/29 00:19:17;;;;;;;5.30;4.90;;;;;;;;;;4927640;29;20233;-64
2023/04/29 00:21:45;;;;;;;6.53;5.20;;;;;;;;;;4915527;29;20616;-64
2023/04/29 00:24:13;;;;;;;5.95;4.75;;;;;;;;;;4915959;29;20223;-64
2023/04/29 00:26:41;;;;;;;6.03;5.43;;;;;;;;;;4915519;29;20217;-66
2023/04/29 00:29:11;;;;;;;4.93;4.43;;;;;;;;;;4903070;29;20635;-64
2023/04/29 00:31:39;;;;;;;6.60;5.15;;;;;;;;;;4934555;29;20205;-64
2023/04/29 00:34:07;;;;;;;5.90;5.50;;;;;;;;;;4934718;29;20196;-64
2023/04/29 00:36:36;;;;;;;10.52;5.03;;;;;;;;;;4933460;29;20212;-64
2023/04/29 00:39:04;;;;;;;5.80;5.30;;;;;;;;;;4934102;29;20223;-63
2023/04/29 00:41:33;;;;;;;5.60;5.10;;;;;;;;;;4933455;29;20668;-63
2023/04/29 00:44:01;;;;;;;5.97;4.90;;;;;;;;;;4934422;29;20625;-63
2023/04/29 00:46:31;;;;;;;7.00;5.75;;;;;;;;;;4933685;29;20581;-63
2023/04/29 00:48:59;;;;;;;9.80;5.55;;;;;;;;;;4917367;29;20203;-63
2023/04/29 00:51:28;;;;;;;8.18;5.90;;;;;;;;;;4923208;29;20649;-65
2023/04/29 00:53:56;;;;;;;6.22;5.30;;;;;;;;;;4934019;29;20209;-63
2023/04/29 00:56:24;;;;;;;6.32;5.72;;;;;;;;;;4933867;29;20220;-65
2023/04/29 00:58:52;;;;;;;5.30;4.90;;;;;;;;;;4933860;29;20746;-65
2023/04/29 01:01:22;;;;;;;5.30;4.88;;;;;;;;;;4932916;29;20196;-66
2023/04/29 01:03:51;;;;;;;5.65;5.15;;;;;;;;;;4933466;29;20644;-64
2023/04/29 01:06:24;;;;;;;5.78;5.05;;;;;;;;;;4933773;29;20833;-64
2023/04/29 01:08:55;;;;;;;5.38;4.97;;;;;;;;;;4898212;29;20197;-66
2023/04/29 01:11:26;;;;;;;5.80;5.30;;;;;;;;;;4898673;29;20217;-64
2023/04/29 01:13:59;;;;;;;5.40;5.00;;;;;;;;;;4914933;29;20751;-64
2023/04/29 01:16:31;;;;;;;5.63;4.95;;;;;;;;;;4898704;29;20190;-64
2023/04/29 01:19:07;;;;;;;5.93;4.43;;;;;;;;;;4902110;29;20572;-64
2023/04/29 01:21:47;;;;;;;7.25;5.93;;;;;;;;;;4917481;29;20233;-64
2023/04/29 01:24:17;;;;;;;5.75;4.95;;;;;;;;;;4934024;29;20189;-64
2023/04/29 01:26:51;;;;;;;5.43;5.03;;;;;;;;;;4917849;29;20199;-64
2023/04/29 01:29:45;;;;;;;6.40;5.10;;;;;;;;;;4900933;29;20199;-63
2023/04/29 01:32:15;;;;;;;6.18;5.57;;;;;;;;;;4917287;29;20209;-63
2023/04/29 01:34:48;;;;;;;7.20;4.78;;;;;;;;;;4933911;29;20229;-63
2023/04/29 01:37:20;;;;;;;4.95;4.55;;;;;;;;;;4917371;29;20209;-63
2023/04/29 01:39:58;;;;;;;4.65;4.35;;;;;;;;;;4916479;29;20243;-66
2023/04/29 01:42:31;;;;;;;5.45;4.90;;;;;;;;;;4917320;29;20279;-63
2023/04/29 01:45:01;;;;;;;5.15;4.72;;;;;;;;;;4917016;29;20189;-64
2023/04/29 01:47:30;;;;;;;6.80;5.00;;;;;;;;;;4916971;29;20207;-63
2023/04/29 01:49:58;;;;;;;7.28;5.63;;;;;;;;;;4933540;29;20200;-64
2023/04/29 01:52:27;;;;;;;5.00;4.60;;;;;;;;;;4915649;29;20530;-64
2023/04/29 01:55:00;;;;;;;5.20;4.65;;;;;;;;;;4917781;29;20193;-64
2023/04/29 01:57:37;;;;;;;7.28;4.60;;;;;;;;;;4902031;29;20197;-64
2023/04/29 02:00:21;;;;;;;5.18;4.57;;;;;;;;;;4901588;29;20216;-64
2023/04/29 02:02:53;;;;;;;4.97;4.68;;;;;;;;;;4904052;29;20235;-64
2023/04/29 02:05:32;;;;;;;4.90;4.13;;;;;;;;;;4919843;29;20674;-65
2023/04/29 02:08:02;;;;;;;5.13;4.78;;;;;;;;;;4919494;29;20211;-64
2023/04/29 02:10:34;;;;;;;4.38;4.07;;;;;;;;;;4919548;29;20195;-64
2023/04/29 02:13:15;;;;;;;4.78;4.22;;;;;;;;;;4919536;29;20652;-65
2023/04/29 02:15:44;;;;;;;4.10;3.80;;;;;;;;;;4916909;29;20206;-64
2023/04/29 02:18:12;;;;;;;5.18;4.72;;;;;;;;;;4901358;29;20217;-64
2023/04/29 02:20:42;;;;;;;4.57;4.28;;;;;;;;;;4917140;29;20767;-66
2023/04/29 02:23:10;;;;;;;4.57;4.10;;;;;;;;;;4936824;29;20213;-64
2023/04/29 02:25:39;;;;;;;4.50;4.20;;;;;;;;;;4936770;29;20208;-64
2023/04/29 02:28:08;;;;;;;4.65;4.25;;;;;;;;;;4920188;29;20294;-64
2023/04/29 02:30:36;;;;;;;4.40;4.00;;;;;;;;;;4937373;29;20565;-63
2023/04/29 02:33:05;;;;;;;3.25;3.05;;;;;;;;;;4918937;29;20215;-64
2023/04/29 02:35:33;;;;;;;3.80;3.50;;;;;;;;;;4918184;29;20239;-65
2023/04/29 02:38:01;;;;;;;4.50;4.10;;;;;;;;;;4917728;29;20243;-64
2023/04/29 02:40:29;;;;;;;3.50;3.30;;;;;;;;;;4916854;29;20615;-64
2023/04/29 02:43:00;;;;;;;4.22;3.85;;;;;;;;;;4903710;29;20230;-64
2023/04/29 02:45:29;;;;;;;10.13;4.00;;;;;;;;;;4919511;29;20203;-64
2023/04/29 02:47:58;;;;;;;4.72;4.15;;;;;;;;;;4936696;29;20205;-64
2023/04/29 02:50:26;;;;;;;5.00;3.97;;;;;;;;;;4919226;29;20573;-64
2023/04/29 02:52:54;;;;;;;5.13;4.15;;;;;;;;;;4919423;29;20205;-63
2023/04/29 02:55:23;;;;;;;5.97;4.00;;;;;;;;;;4919929;29;20217;-64
2023/04/29 02:57:51;;;;;;;3.63;3.42;;;;;;;;;;4918858;29;20225;-64
2023/04/29 03:00:22;;;;;;;3.70;3.40;;;;;;;;;;4936362;29;20225;-64
2023/04/29 03:02:50;;;;;;;3.22;3.03;;;;;;;;;;4935036;29;20200;-64
2023/04/29 03:05:19;;;;;;;4.38;3.80;;;;;;;;;;4935911;29;20212;-64
2023/04/29 03:07:47;;;;;;;4.10;3.80;;;;;;;;;;4935666;29;20212;-64
2023/04/29 03:10:17;;;;;;;7.70;3.83;;;;;;;;;;4919103;29;20205;-63
2023/04/29 03:12:45;;;;;;;3.90;3.37;;;;;;;;;;4935888;29;20565;-66
2023/04/29 03:15:14;;;;;;;3.53;3.22;;;;;;;;;;4927548;29;21181;-63
2023/04/29 03:17:45;;;;;;;4.45;4.13;;;;;;;;;;4919061;29;20209;-64
2023/04/29 03:20:14;;;;;;;4.28;3.80;;;;;;;;;;4935748;29;20228;-63
2023/04/29 03:22:43;;;;;;;3.30;3.10;;;;;;;;;;4935427;29;20560;-64
2023/04/29 03:25:12;;;;;;;6.93;4.15;;;;;;;;;;4918778;29;20209;-65
2023/04/29 03:27:41;;;;;;;4.57;3.50;;;;;;;;;;4916186;29;20232;-64
2023/04/29 03:30:09;;;;;;;4.30;3.90;;;;;;;;;;4936341;29;20211;-63
2023/04/29 03:32:45;;;;;;;4.13;3.83;;;;;;;;;;4918037;29;20201;-63
2023/04/29 03:35:13;;;;;;;4.20;3.83;;;;;;;;;;4919051;29;20204;-63
2023/04/29 03:37:46;;;;;;;5.90;3.60;;;;;;;;;;4918023;29;20540;-63
2023/04/29 03:40:28;;;;;;;4.10;3.70;;;;;;;;;;4916653;29;20785;-64
2023/04/29 03:42:56;;;;;;;4.28;3.83;;;;;;;;;;4918585;29;20555;-63
2023/04/29 03:45:24;;;;;;;4.63;4.30;;;;;;;;;;4922385;29;20559;-64
2023/04/29 03:47:54;;;;;;;3.78;3.47;;;;;;;;;;4916555;29;20275;-63
2023/04/29 03:50:24;;;;;;;4.75;4.28;;;;;;;;;;4933844;29;20208;-63
2023/04/29 03:52:53;;;;;;;3.40;3.20;;;;;;;;;;4934359;29;20274;-63
2023/04/29 03:55:21;;;;;;;3.90;3.60;;;;;;;;;;4936536;29;20220;-63
2023/04/29 03:57:50;;;;;;;4.07;3.40;;;;;;;;;;4917928;29;20537;-63
2023/04/29 04:00:20;;;;;;;4.63;4.05;;;;;;;;;;4919099;29;20208;-64
2023/04/29 04:02:55;;;;;;;6.32;3.80;;;;;;;;;;4917341;29;20286;-64
2023/04/29 04:05:24;;;;;;;4.18;3.85;;;;;;;;;;4917899;29;20215;-63
2023/04/29 04:07:56;;;;;;;4.15;3.85;;;;;;;;;;4917873;29;20203;-63
2023/04/29 04:10:49;;;;;;;4.20;3.90;;;;;;;;;;4918613;29;20201;-64
2023/04/29 04:13:28;;;;;;;4.07;3.42;;;;;;;;;;4917498;29;20636;-64
2023/04/29 04:15:56;;;;;;;3.75;3.55;;;;;;;;;;4901846;29;20698;-64
2023/04/29 04:18:26;;;;;;;3.92;3.63;;;;;;;;;;4917517;29;20213;-64
2023/04/29 04:20:54;;;;;;;6.28;3.50;;;;;;;;;;4927824;29;20229;-64
2023/04/29 04:23:23;;;;;;;4.28;3.88;;;;;;;;;;4905209;29;20220;-64
2023/04/29 04:25:52;;;;;;;3.80;3.50;;;;;;;;;;4907210;29;20213;-67
2023/04/29 04:28:39;;;;;;;6.07;3.35;;;;;;;;;;4915751;29;20202;-65
2023/04/29 04:31:13;;;;;;;4.65;3.30;;;;;;;;;;4918048;29;20189;-64
2023/04/29 04:33:43;;;;;;;3.17;3.00;;;;;;;;;;4918091;29;20205;-66
2023/04/29 04:36:11;;;;;;;3.28;3.08;;;;;;;;;;4934505;29;20208;-63
2023/04/29 04:38:40;;;;;;;2.70;2.50;;;;;;;;;;4917756;29;20582;-64
2023/04/29 04:41:12;;;;;;;2.97;2.78;;;;;;;;;;4934204;29;20243;-64
2023/04/29 04:43:41;;;;;;;3.17;2.97;;;;;;;;;;4935217;29;20215;-63
2023/04/29 04:46:16;;;;;;;3.65;3.22;;;;;;;;;;4917742;29;20254;-64
2023/04/29 04:49:01;;;;;;;3.33;3.08;;;;;;;;;;4917764;29;20193;-66
2023/04/29 04:51:30;;;;;;;6.60;2.67;;;;;;;;;;4922750;29;20181;-66
2023/04/29 04:53:59;;;;;;;3.53;2.72;;;;;;;;;;4932826;29;20264;-66
2023/04/29 04:56:30;;;;;;;3.67;3.47;;;;;;;;;;4930914;29;20278;-67
2023/04/29 04:58:58;;;;;;;4.07;3.78;;;;;;;;;;4950010;29;20232;-66
2023/04/29 05:01:26;;;;;;;3.83;3.15;;;;;;;;;;4949256;29;20659;-66
2023/04/29 05:03:55;;;;;;;3.10;2.90;;;;;;;;;;4950027;29;20283;-66
2023/04/29 05:06:24;;;;;;;3.10;2.90;;;;;;;;;;4932571;29;20712;-66
2023/04/29 05:08:53;;;;;;;3.85;3.45;;;;;;;;;;4949636;29;20287;-64
2023/04/29 05:11:21;;;;;;;6.47;6.07;;;;;;;;;;4934752;29;20205;-63
2023/04/29 05:14:06;;;;;;;10.30;9.25;;;;;;;;;;4915244;29;20203;-64
2023/04/29 05:16:34;;;;;;;8.63;7.75;;;;;;;;;;4932514;29;20207;-63
2023/04/29 05:19:03;;;;;;;14.52;12.98;;;;;;;;;;4916412;29;20207;-63
2023/04/29 05:21:36;;;;;;;3.60;3.30;;;;;;;;;;4916899;29;20225;-64
2023/04/29 05:24:05;;;;;;;6.60;5.93;;;;;;;;;;4917098;29;20214;-64
2023/04/29 05:26:33;;;;;;;2.13;2.03;;;;;;;;;;4929154;29;20204;-63
2023/04/29 05:29:02;;;;;;;2.77;2.57;;;;;;;;;;4928201;29;20709;-66
2023/04/29 05:31:37;;;;;;;3.20;3.00;;;;;;;;;;4931393;29;20635;-66
2023/04/29 05:34:05;;;;;;;3.65;3.30;;;;;;;;;;4933024;29;20679;-66
2023/04/29 05:36:35;;;;;;;2.97;2.65;;;;;;;;;;4932064;29;20237;-66
2023/04/29 05:39:03;;;;;;;2.70;2.60;;;;;;;;;;4930788;29;20284;-66
2023/04/29 05:41:32;;;;;;;3.30;2.88;;;;;;;;;;4928413;29;20720;-66
2023/04/29 05:44:22;;;;;;;3.47;3.28;;;;;;;;;;4929920;29;20245;-66
2023/04/29 05:46:51;;;;;;;4.03;3.03;;;;;;;;;;4945470;29;20232;-66
2023/04/29 05:49:20;;;;;;;5.32;3.13;;;;;;;;;;4930007;29;20727;-66
2023/04/29 05:51:49;;;;;;;2.88;2.78;;;;;;;;;;4948029;29;20261;-66
2023/04/29 05:54:18;;;;;;;3.63;3.33;;;;;;;;;;4914951;29;20269;-66
2023/04/29 05:56:47;;;;;;;3.65;3.35;;;;;;;;;;4931006;29;20204;-66
2023/04/29 05:59:15;;;;;;;3.95;3.65;;;;;;;;;;4944154;29;20264;-66
2023/04/29 06:01:52;;;;;;;5.90;5.40;;;;;;;;;;4937434;29;20285;-66
2023/04/29 06:04:20;;;;;;;6.00;5.43;;;;;;;;;;4931756;29;20228;-66
2023/04/29 06:07:09;;;;;;;4.63;4.32;;;;;;;;;;4947620;29;20216;-66
2023/04/29 06:09:59;;;;;;;10.30;5.10;;;;;;;;;;4949223;29;20248;-66
2023/04/29 06:12:29;;;;;;;5.40;5.00;;;;;;;;;;4933064;29;20224;-66
2023/04/29 06:14:59;;;;;;;4.80;4.40;;;;;;;;;;4933258;29;20228;-66
2023/04/29 06:17:28;;;;;;;7.70;3.35;;;;;;;;;;4932621;29;20243;-66
2023/04/29 06:19:56;;;;;;;4.72;4.00;;;;;;;;;;4933193;29;20261;-67
2023/04/29 06:22:26;;;;;;;3.97;3.65;;;;;;;;;;4950238;29;20260;-67
2023/04/29 06:24:56;;;;;;;3.50;3.20;;;;;;;;;;4935135;29;20676;-67
2023/04/29 06:27:39;;;;;;;3.13;3.03;;;;;;;;;;4935170;29;20232;-68
2023/04/29 06:30:08;;;;;;;2.67;2.40;;;;;;;;;;4934741;29;20638;-67
2023/04/29 06:32:36;;;;;;;2.43;2.23;;;;;;;;;;4934802;29;20224;-66
2023/04/29 06:35:05;;;;;;;2.27;2.17;;;;;;;;;;4952280;29;20623;-67
2023/04/29 06:37:55;;;;;;;5.57;2.40;;;;;;;;;;4937629;29;20637;-66
2023/04/29 06:40:36;;;;;;;9.43;3.07;;;;;;;;;;4950998;29;20665;-66
2023/04/29 06:43:14;;;;;;;3.40;3.20;;;;;;;;;;4955967;29;20654;-67
2023/04/29 06:45:52;;;;;;;3.97;3.57;;;;;;;;;;4938252;29;20239;-67
2023/04/29 06:48:23;;;;;;;3.00;2.60;;;;;;;;;;4919034;29;20611;-67
2023/04/29 06:50:52;;;;;;;2.73;2.53;;;;;;;;;;4951995;29;20652;-67
2023/04/29 06:53:22;;;;;;;3.10;2.93;;;;;;;;;;4954135;29;20611;-67
2023/04/29 06:55:51;;;;;;;2.40;2.20;;;;;;;;;;4938762;29;20691;-67
2023/04/29 06:58:21;;;;;;;3.40;2.80;;;;;;;;;;4937545;29;20598;-67
2023/04/29 07:00:51;;;;;;;3.10;2.90;;;;;;;;;;4953558;29;20651;-67
2023/04/29 07:03:19;;;;;;;3.07;2.87;;;;;;;;;;4934877;29;20678;-66
2023/04/29 07:05:48;;;;;;;2.40;2.30;;;;;;;;;;4951487;29;20622;-66
2023/04/29 07:08:16;;;;;;;3.30;3.10;;;;;;;;;;4946983;29;20686;-66
2023/04/29 07:10:54;;;;;;;3.20;3.00;;;;;;;;;;4933276;29;20703;-66
2023/04/29 07:13:25;;;;;;;4.70;2.73;;;;;;;;;;4949625;29;20640;-66
2023/04/29 07:15:53;;;;;;;2.20;2.10;;;;;;;;;;4933056;29;20666;-66
2023/04/29 07:18:21;;;;;;;2.73;2.50;;;;;;;;;;4944266;29;21037;-66
2023/04/29 07:20:51;;;;;;;3.17;2.37;;;;;;;;;;4917184;29;20711;-67
2023/04/29 07:23:19;;;;;;;2.53;2.43;;;;;;;;;;4930222;29;20706;-65
2023/04/29 07:25:50;;;;;;;2.33;2.23;;;;;;;;;;4951039;29;20630;-66
2023/04/29 07:28:18;;;;;;;2.60;2.40;;;;;;;;;;4946019;29;20626;-66
2023/04/29 07:30:47;;;;;;;2.23;2.10;;;;;;;;;;4931188;29;20688;-66
2023/04/29 07:33:15;;;;;;;2.60;2.37;;;;;;;;;;4932384;29;20695;-66
2023/04/29 07:35:44;;;;;;;2.97;2.77;;;;;;;;;;4923037;29;20635;-66
2023/04/29 07:38:12;;;;;;;2.57;2.47;;;;;;;;;;4935035;29;20627;-66
2023/04/29 07:40:43;;;;;;;2.97;2.80;;;;;;;;;;4934687;29;21016;-66
2023/04/29 07:43:13;;;;;;;2.60;2.50;;;;;;;;;;4938700;29;20703;-66
2023/04/29 07:45:41;;;;;;;3.60;2.63;;;;;;;;;;4938829;29;20668;-66
2023/04/29 07:48:10;;;;;;;2.83;2.60;;;;;;;;;;4937191;29;20611;-67
2023/04/29 07:50:38;;;;;;;2.90;2.40;;;;;;;;;;4952624;29;20641;-66
2023/04/29 07:53:07;;;;;;;2.90;2.70;;;;;;;;;;4948379;29;20671;-66
2023/04/29 07:55:37;;;;;;;3.00;2.80;;;;;;;;;;4950430;29;21165;-67
2023/04/29 07:58:06;;;;;;;3.43;3.23;;;;;;;;;;4933638;29;20615;-66
2023/04/29 08:00:36;;;;;;;4.00;3.70;;;;;;;;;;4930628;29;20729;-67
2023/04/29 08:03:04;;;;;;;3.87;3.57;;;;;;;;;;4944737;29;20732;-65
2023/04/29 08:05:33;;;;;;;3.77;3.50;;;;;;;;;;4944806;29;20595;-66
2023/04/29 08:08:01;;;;;;;4.10;3.70;;;;;;;;;;4945931;29;20698;-66
2023/04/29 08:10:29;;;;;;;4.10;3.70;;;;;;;;;;4947074;29;20651;-66
2023/04/29 08:12:58;;;;;;;4.23;3.93;;;;;;;;;;4929346;29;21052;-66
2023/04/29 08:15:26;;;;;;;4.60;4.23;;;;;;;;;;4947155;29;20625;-66
2023/04/29 08:17:56;;;;;;;5.47;5.07;;;;;;;;;;4929536;29;20675;-66
2023/04/29 08:20:24;;;;;;;5.30;4.90;;;;;;;;;;4930132;29;21277;-66
2023/04/29 08:22:53;;;;;;;5.63;5.23;;;;;;;;;;4946788;29;20726;-66
2023/04/29 08:25:21;;;;;;;5.77;5.27;;;;;;;;;;4946726;29;20674;-66
2023/04/29 08:27:49;;;;;;;6.00;5.13;;;;;;;;;;4946952;29;20700;-66
2023/04/29 08:30:18;;;;;;;5.30;4.90;;;;;;;;;;4948495;29;20677;-66
2023/04/29 08:32:46;;;;;;;5.30;4.90;;;;;;;;;;4930386;29;20684;-67
2023/04/29 08:35:16;;;;;;;7.20;6.50;;;;;;;;;;4948351;29;20692;-66
2023/04/29 08:37:44;;;;;;;5.00;4.67;;;;;;;;;;4930350;29;20680;-66
2023/04/29 08:40:14;;;;;;;4.50;4.20;;;;;;;;;;4947302;29;20752;-66
2023/04/29 08:42:44;;;;;;;4.80;4.30;;;;;;;;;;4955761;29;20750;-66
2023/04/29 08:45:13;;;;;;;5.60;4.40;;;;;;;;;;4965857;29;20823;-66
2023/04/29 08:47:42;;;;;;;4.33;4.03;;;;;;;;;;4966220;29;20271;-66
2023/04/29 08:50:11;;;;;;;5.60;5.17;;;;;;;;;;4966122;29;20689;-66
2023/04/29 08:52:41;;;;;;;5.20;4.70;;;;;;;;;;4966649;29;20710;-66
2023/04/29 08:55:10;;;;;;;6.13;4.70;;;;;;;;;;4949615;29;20685;-66
2023/04/29 08:57:38;;;;;;;4.97;4.57;;;;;;;;;;4966591;29;20703;-66
2023/04/29 09:00:09;;;;;;;4.60;4.10;;;;;;;;;;4961620;29;20679;-66
2023/04/29 09:02:39;;;;;;;6.87;3.63;;;;;;;;;;4946098;29;21266;-66
2023/04/29 09:05:10;;;;;;;4.17;3.77;;;;;;;;;;4946118;29;20646;-67
2023/04/29 09:07:39;;;;;;;3.60;3.40;;;;;;;;;;4929607;29;21388;-66
2023/04/29 09:10:10;;;;;;;4.30;4.00;;;;;;;;;;4946019;29;21523;-66
2023/04/29 09:12:38;;;;;;;6.83;4.27;;;;;;;;;;4946587;29;20658;-67
2023/04/29 09:15:07;;;;;;;7.93;4.90;;;;;;;;;;4929745;29;20752;-66
2023/04/29 09:17:42;;;;;;;3.47;3.27;;;;;;;;;;4946022;29;20719;-66
2023/04/29 09:20:27;;;;;;;3.53;3.43;;;;;;;;;;4946618;29;20678;-67
2023/04/29 09:22:56;;;;;;;3.37;3.23;;;;;;;;;;4945606;29;20694;-66
2023/04/29 09:25:26;;;;;;;7.80;7.10;;;;;;;;;;4949442;29;20591;-66
2023/04/29 09:27:54;;;;;;;9.90;8.90;;;;;;;;;;4950972;29;20624;-66
2023/04/29 09:30:23;;;;;;;13.27;8.70;;;;;;;;;;4949642;29;20625;-66
2023/04/29 09:33:05;;;;;;;10.87;9.40;;;;;;;;;;4950422;29;20663;-66
2023/04/29 09:35:33;;;;;;;13.33;10.50;;;;;;;;;;4949989;29;20640;-66
2023/04/29 09:38:11;;;;;;;12.07;10.87;;;;;;;;;;4948868;29;20644;-66
2023/04/29 09:40:41;;;;;;;11.17;9.97;;;;;;;;;;4952019;29;20643;-66
2023/04/29 09:43:14;;;;;;;12.67;11.37;;;;;;;;;;4951450;29;20682;-66
2023/04/29 09:45:43;;;;;;;10.73;9.60;;;;;;;;;;4950659;29;20624;-66
2023/04/29 09:48:12;;;;;;;10.80;9.50;;;;;;;;;;4950727;29;20615;-66
2023/04/29 09:50:41;;;;;;;11.47;10.27;;;;;;;;;;4949534;29;20643;-66
2023/04/29 09:53:10;;;;;;;16.10;9.83;;;;;;;;;;4951096;29;21145;-66
2023/04/29 09:56:01;;;;;;;11.23;10.07;;;;;;;;;;4950316;29;20679;-67
2023/04/29 09:58:30;;;;;;;11.23;10.10;;;;;;;;;;4951024;29;20612;-66
2023/04/29 10:01:01;;;;;;;12.87;9.90;;;;;;;;;;4949518;29;20648;-66
2023/04/29 10:03:32;;;;;;;24.10;10.60;;;;;;;;;;4949249;29;20652;-66
2023/04/29 10:06:01;;;;;;;9.77;8.50;;;;;;;;;;4933309;29;20627;-66
2023/04/29 10:08:30;;;;;;;10.17;8.90;;;;;;;;;;4951171;29;21054;-67
2023/04/29 10:11:00;;;;;;;9.37;8.30;;;;;;;;;;4933302;29;20655;-66
2023/04/29 10:13:29;;;;;;;10.43;8.83;;;;;;;;;;4950784;29;20637;-66
2023/04/29 10:16:00;;;;;;;9.90;8.30;;;;;;;;;;4933607;29;20629;-66
2023/04/29 10:18:35;;;;;;;9.70;8.20;;;;;;;;;;4937045;29;20605;-66
2023/04/29 10:21:04;;;;;;;10.03;8.00;;;;;;;;;;4953961;29;20631;-67
2023/04/29 10:23:33;;;;;;;11.20;8.47;;;;;;;;;;4938426;29;20759;-66
2023/04/29 10:26:03;;;;;;;8.40;7.60;;;;;;;;;;4954168;29;20629;-66
2023/04/29 10:28:32;;;;;;;7.77;7.07;;;;;;;;;;4954303;29;20611;-66
2023/04/29 10:31:02;;;;;;;8.53;7.73;;;;;;;;;;4953946;29;20614;-66
2023/04/29 10:33:32;;;;;;;10.30;9.30;;;;;;;;;;4953355;29;20611;-66
2023/04/29 10:36:01;;;;;;;9.50;8.60;;;;;;;;;;4951460;29;20656;-66
2023/04/29 10:38:31;;;;;;;9.93;7.57;;;;;;;;;;4935501;29;20656;-66
2023/04/29 10:41:00;;;;;;;7.80;6.50;;;;;;;;;;4933413;29;20649;-66
2023/04/29 10:43:30;;;;;;;7.90;7.20;;;;;;;;;;4934028;29;20653;-67
2023/04/29 10:46:17;;;;;;;7.30;6.47;;;;;;;;;;4935917;29;20637;-66
2023/04/29 10:48:46;;;;;;;8.80;7.90;;;;;;;;;;4935048;29;20626;-67
2023/04/29 10:51:14;;;;;;;10.87;8.73;;;;;;;;;;4934884;29;20656;-67
2023/04/29 10:54:02;;;;;;;8.77;7.87;;;;;;;;;;4933468;29;20645;-67
2023/04/29 10:56:40;;;;;;;8.50;6.03;;;;;;;;;;4936147;29;20622;-66
2023/04/29 10:59:13;;;;;;;9.30;8.20;;;;;;;;;;4932958;29;20620;-67
2023/04/29 11:01:46;;;;;;;8.03;7.23;;;;;;;;;;4932485;29;21107;-66
2023/04/29 11:04:15;;;;;;;9.37;8.57;;;;;;;;;;4933680;29;20684;-66
2023/04/29 11:06:45;;;;;;;10.37;7.10;;;;;;;;;;4934261;29;20617;-67
2023/04/29 11:09:19;;;;;;;9.00;8.00;;;;;;;;;;4936014;29;20642;-66
2023/04/29 11:11:49;;;;;;;8.50;7.67;;;;;;;;;;4935488;29;20579;-66
2023/04/29 11:14:22;;;;;;;8.77;7.07;;;;;;;;;;4933994;29;20643;-66
2023/04/29 11:16:52;;;;;;;8.80;6.37;;;;;;;;;;4935973;29;20601;-66
2023/04/29 11:19:20;;;;;;;7.10;6.50;;;;;;;;;;4934469;29;20615;-66
2023/04/29 11:21:48;;;;;;;7.33;6.00;;;;;;;;;;4933077;29;20641;-66
2023/04/29 11:24:17;;;;;;;6.67;6.07;;;;;;;;;;4932908;29;20716;-66
2023/04/29 11:26:45;;;;;;;7.53;6.57;;;;;;;;;;4931257;29;20704;-67
2023/04/29 11:29:13;;;;;;;11.73;5.90;;;;;;;;;;4930005;29;21203;-66
2023/04/29 11:31:43;;;;;;;7.10;6.50;;;;;;;;;;4930771;29;20696;-66
2023/04/29 11:34:11;;;;;;;7.33;6.60;;;;;;;;;;4930037;29;21499;-66
2023/04/29 11:36:39;;;;;;;8.83;7.30;;;;;;;;;;4931250;29;20609;-66
2023/04/29 11:39:08;;;;;;;11.57;7.10;;;;;;;;;;4931745;29;20645;-67
2023/04/29 11:41:38;;;;;;;7.20;6.60;;;;;;;;;;4953980;29;20608;-67
2023/04/29 11:44:08;;;;;;;8.13;7.40;;;;;;;;;;4949868;29;20747;-67
2023/04/29 11:46:36;;;;;;;8.80;7.23;;;;;;;;;;4949917;29;20703;-67
2023/04/29 11:49:06;;;;;;;8.20;7.40;;;;;;;;;;4947327;29;20754;-67
2023/04/29 11:51:34;;;;;;;9.57;6.57;;;;;;;;;;4949666;29;20624;-67
2023/04/29 11:54:03;;;;;;;7.80;7.00;;;;;;;;;;4950163;29;20647;-67
2023/04/29 11:56:32;;;;;;;7.33;6.73;;;;;;;;;;4951139;29;20700;-65
2023/04/29 11:59:01;;;;;;;7.83;7.00;;;;;;;;;;4951187;29;20686;-66
2023/04/29 12:01:29;;;;;;;9.10;7.50;;;;;;;;;;4950793;29;20636;-66
2023/04/29 12:03:59;;;;;;;11.00;8.53;;;;;;;;;;4948736;29;21040;-67
2023/04/29 12:06:32;;;;;;;9.00;7.60;;;;;;;;;;4949405;29;20651;-67
2023/04/29 12:09:03;;;;;;;7.77;7.17;;;;;;;;;;4950118;29;21019;-67
2023/04/29 12:11:33;;;;;;;7.53;6.93;;;;;;;;;;4949721;29;20900;-67
2023/04/29 12:14:04;;;;;;;7.67;7.00;;;;;;;;;;4949482;29;20636;-67
2023/04/29 12:16:33;;;;;;;8.87;8.00;;;;;;;;;;4949097;29;20632;-67
2023/04/29 12:19:01;;;;;;;9.47;8.20;;;;;;;;;;4946701;29;20699;-66
2023/04/29 12:21:31;;;;;;;7.33;6.80;;;;;;;;;;4947153;29;21252;-67
2023/04/29 12:24:00;;;;;;;8.53;7.73;;;;;;;;;;4946090;29;20704;-67
2023/04/29 12:26:29;;;;;;;8.70;7.90;;;;;;;;;;4930731;29;20846;-66
2023/04/29 12:28:58;;;;;;;7.50;6.90;;;;;;;;;;4946961;29;20695;-68
2023/04/29 12:31:33;;;;;;;8.13;7.37;;;;;;;;;;4945955;29;20628;-68
2023/04/29 12:34:03;;;;;;;8.53;7.83;;;;;;;;;;4945054;29;20699;-67
2023/04/29 12:36:33;;;;;;;8.30;7.60;;;;;;;;;;4945396;29;20704;-67
2023/04/29 12:39:01;;;;;;;8.77;8.10;;;;;;;;;;4943692;29;20723;-67
2023/04/29 12:41:40;;;;;;;7.80;7.20;;;;;;;;;;4943652;29;20708;-67
2023/04/29 12:44:09;;;;;;;8.03;7.43;;;;;;;;;;4943995;29;20668;-67
2023/04/29 12:46:38;;;;;;;8.60;7.93;;;;;;;;;;4944427;29;20739;-67
2023/04/29 12:49:06;;;;;;;8.00;7.50;;;;;;;;;;4946499;29;20699;-67
2023/04/29 12:51:36;;;;;;;8.97;8.07;;;;;;;;;;4947790;29;20707;-67
2023/04/29 12:54:06;;;;;;;8.10;7.40;;;;;;;;;;4928464;29;20695;-67
2023/04/29 12:56:34;;;;;;;8.90;7.60;;;;;;;;;;4927855;29;20736;-67
2023/04/29 12:59:07;;;;;;;7.30;6.73;;;;;;;;;;4947047;29;20696;-66
2023/04/29 13:01:35;;;;;;;7.03;6.33;;;;;;;;;;4945944;29;20698;-67
2023/04/29 13:04:04;;;;;;;7.90;7.13;;;;;;;;;;4944317;29;20684;-68
2023/04/29 13:06:32;;;;;;;7.40;6.80;;;;;;;;;;4942813;29;20739;-68
2023/04/29 13:09:02;;;;;;;8.20;7.53;;;;;;;;;;4925011;29;20703;-67
2023/04/29 13:11:30;;;;;;;12.17;7.77;;;;;;;;;;4948184;29;20622;-67
2023/04/29 13:13:58;;;;;;;9.10;8.30;;;;;;;;;;4949302;29;20623;-66
2023/04/29 13:16:26;;;;;;;10.20;9.30;;;;;;;;;;4947934;29;20670;-67
2023/04/29 13:18:56;;;;;;;9.27;7.90;;;;;;;;;;4948006;29;20652;-67
2023/04/29 13:21:24;;;;;;;9.27;8.37;;;;;;;;;;4946959;29;20736;-68
2023/04/29 13:23:52;;;;;;;9.63;8.73;;;;;;;;;;4950120;29;20647;-67
2023/04/29 13:26:22;;;;;;;9.23;8.20;;;;;;;;;;4950745;29;20684;-67
2023/04/29 13:28:51;;;;;;;9.33;8.40;;;;;;;;;;4951048;29;20585;-67
2023/04/29 13:31:19;;;;;;;8.93;8.03;;;;;;;;;;4951452;29;20655;-67
2023/04/29 13:33:48;;;;;;;8.27;7.57;;;;;;;;;;4933008;29;20676;-67
2023/04/29 13:36:16;;;;;;;10.80;8.40;;;;;;;;;;4948349;29;20651;-67
2023/04/29 13:38:44;;;;;;;10.40;9.30;;;;;;;;;;4950167;29;20796;-67
2023/04/29 13:41:12;;;;;;;16.20;10.40;;;;;;;;;;4950559;29;20691;-67
2023/04/29 13:43:42;;;;;;;9.30;8.30;;;;;;;;;;4949395;29;20643;-67
2023/04/29 13:46:10;;;;;;;7.77;7.07;;;;;;;;;;4948195;29;20740;-66
2023/04/29 13:48:39;;;;;;;9.33;7.50;;;;;;;;;;4952451;29;20603;-67
2023/04/29 13:51:07;;;;;;;7.80;7.10;;;;;;;;;;4932426;29;20611;-67
2023/04/29 13:53:35;;;;;;;8.10;7.40;;;;;;;;;;4949638;29;20619;-66
2023/04/29 13:56:03;;;;;;;7.60;6.63;;;;;;;;;;4933244;29;20640;-66
2023/04/29 13:58:32;;;;;;;7.53;6.20;;;;;;;;;;4931263;29;20704;-67
2023/04/29 14:01:01;;;;;;;8.07;7.27;;;;;;;;;;4933416;29;20637;-66
2023/04/29 14:03:29;;;;;;;7.60;7.00;;;;;;;;;;4950091;29;20632;-66
2023/04/29 14:05:58;;;;;;;10.57;6.70;;;;;;;;;;4933409;29;20850;-66
2023/04/29 14:08:26;;;;;;;7.37;6.67;;;;;;;;;;4948653;29;20663;-66
2023/04/29 14:10:54;;;;;;;8.47;7.60;;;;;;;;;;4949183;29;20750;-66
2023/04/29 14:13:22;;;;;;;7.93;7.23;;;;;;;;;;4932204;29;20671;-67
2023/04/29 14:15:51;;;;;;;7.77;7.07;;;;;;;;;;4960891;29;20667;-66
2023/04/29 14:18:21;;;;;;;7.80;7.00;;;;;;;;;;4933687;29;20711;-66
2023/04/29 14:20:49;;;;;;;8.20;7.40;;;;;;;;;;4963309;28;20666;-67
2023/04/29 14:23:17;;;;;;;7.90;7.20;;;;;;;;;;4949648;29;20619;-66
2023/04/29 14:25:46;;;;;;;7.60;6.63;;;;;;;;;;4949924;29;20666;-66
2023/04/29 14:28:14;;;;;;;7.63;6.90;;;;;;;;;;4946778;29;20700;-66
2023/04/29 14:30:42;;;;;;;7.47;6.87;;;;;;;;;;4947337;29;20688;-66
2023/04/29 14:33:10;;;;;;;10.50;7.60;;;;;;;;;;4928287;29;20651;-66
2023/04/29 14:35:40;;;;;;;9.17;8.27;;;;;;;;;;4947034;29;20670;-66
2023/04/29 14:38:08;;;;;;;7.73;7.13;;;;;;;;;;4948753;29;20687;-66
2023/04/29 14:40:37;;;;;;;7.80;7.10;;;;;;;;;;4940665;29;20671;-66
2023/04/29 14:43:06;;;;;;;8.10;7.20;;;;;;;;;;4946924;29;20648;-66
2023/04/29 14:45:34;;;;;;;7.27;6.50;;;;;;;;;;4950785;29;20695;-66
2023/04/29 14:48:03;;;;;;;7.50;6.80;;;;;;;;;;4951552;29;20619;-66
2023/04/29 14:50:31;;;;;;;9.63;8.63;;;;;;;;;;4933885;29;20631;-66
2023/04/29 14:53:01;;;;;;;8.50;7.70;;;;;;;;;;4949376;29;20632;-66
2023/04/29 14:55:29;;;;;;;7.57;6.77;;;;;;;;;;4944355;29;20630;-66
2023/04/29 14:57:58;;;;;;;6.40;5.90;;;;;;;;;;4930187;29;20688;-66
2023/04/29 15:00:26;;;;;;;6.70;6.00;;;;;;;;;;4945511;29;20743;-66